sensor_id;sensor_type;location;lat;lon;timestamp;pressure;altitude;pressure_sealevel;temperature;humidity
8140;BME280;4111;50.972;7.072;2024-02-15T00:00:20;101329.75;;;12.44;100.00
8140;BME280;4111;50.972;7.072;2024-02-15T00:02:47;101346.09;;;12.44;100.00
8140;BME280;4111;50.972;7.072;2024-02-15T00:05:14;101340.38;;;12.46;100.00
8140;BME280;4111;50.972;7.072;2024-02-15T00:07:44;101347.13;;;12.43;100.00
8140;BME280;4111;50.972;7.072;2024-02-15T00:10:11;101335.91;;;12.40;100.00
8140;BME280;4111;50.972;7.072;2024-02-15T00:12:38;101334.59;;;12.42;100.00
8140;BME280;4111;50.972;7.072;2024-02-15T00:15:07;101338.84;;;12.50;100.00
8140;BME280;4111;50.972;7.072;2024-02-15T00:17:37;101342.50;;;12.44;100.00
8140;BME280;4111;50.972;7.072;2024-02-15T00:20:05;101336.81;;;12.45;100.00
8140;BME280;4111;50.972;7.072;2024-02-15T00:22:36;101338.38;;;12.41;100.00
8140;BME280;4111;50.972;7.072;2024-02-15T00:25:04;101341.34;;;12.40;100.00
8140;BME280;4111;50.972;7.072;2024-02-15T00:27:38;101331.31;;;12.40;100.00
8140;BME280;4111;50.972;7.072;2024-02-15T00:30:05;101343.19;;;12.51;100.00
8140;BME280;4111;50.972;7.072;2024-02-15T00:32:37;101343.44;;;12.49;100.00
8140;BME280;4111;50.972;7.072;2024-02-15T00:35:05;101340.97;;;12.48;100.00
8140;BME280;4111;50.972;7.072;2024-02-15T00:37:35;101344.53;;;12.48;100.00
8140;BME280;4111;50.972;7.072;2024-02-15T00:40:03;101343.09;;;12.46;100.00
8140;BME280;4111;50.972;7.072;2024-02-15T00:42:30;101345.50;;;12.42;100.00
8140;BME280;4111;50.972;7.072;2024-02-15T00:45:03;101339.06;;;12.48;100.00
8140;BME280;4111;50.972;7.072;2024-02-15T00:47:31;101342.38;;;12.50;100.00
8140;BME280;4111;50.972;7.072;2024-02-15T00:49:59;101344.91;;;12.40;100.00
8140;BME280;4111;50.972;7.072;2024-02-15T00:52:26;101337.91;;;12.44;100.00
8140;BME280;4111;50.972;7.072;2024-02-15T00:54:53;101348.53;;;12.46;100.00
8140;BME280;4111;50.972;7.072;2024-02-15T00:57:19;101352.69;;;12.48;100.00
8140;BME280;4111;50.972;7.072;2024-02-15T00:59:46;101344.00;;;12.52;100.00
8140;BME280;4111;50.972;7.072;2024-02-15T01:02:12;101337.59;;;12.58;100.00
8140;BME280;4111;50.972;7.072;2024-02-15T01:04:39;101345.19;;;12.56;100.00
8140;BME280;4111;50.972;7.072;2024-02-15T01:07:05;101340.06;;;12.59;100.00
8140;BME280;4111;50.972;7.072;2024-02-15T01:09:32;101346.75;;;12.52;100.00
8140;BME280;4111;50.972;7.072;2024-02-15T01:12:01;101341.22;;;12.46;100.00
8140;BME280;4111;50.972;7.072;2024-02-15T01:14:30;101347.81;;;12.50;100.00
8140;BME280;4111;50.972;7.072;2024-02-15T01:16:57;101342.38;;;12.50;100.00
8140;BME280;4111;50.972;7.072;2024-02-15T01:19:24;101345.50;;;12.42;100.00
8140;BME280;4111;50.972;7.072;2024-02-15T01:21:50;101342.91;;;12.36;100.00
8140;BME280;4111;50.972;7.072;2024-02-15T01:24:16;101343.25;;;12.39;100.00
8140;BME280;4111;50.972;7.072;2024-02-15T01:26:43;101344.53;;;12.48;100.00
8140;BME280;4111;50.972;7.072;2024-02-15T01:29:10;101344.34;;;12.38;100.00
8140;BME280;4111;50.972;7.072;2024-02-15T01:31:38;101340.88;;;12.43;100.00
8140;BME280;4111;50.972;7.072;2024-02-15T01:34:05;101339.06;;;12.48;100.00
8140;BME280;4111;50.972;7.072;2024-02-15T01:36:32;101332.47;;;12.44;100.00
8140;BME280;4111;50.972;7.072;2024-02-15T01:38:58;101331.16;;;12.47;100.00
8140;BME280;4111;50.972;7.072;2024-02-15T01:41:25;101327.84;;;12.45;100.00
8140;BME280;4111;50.972;7.072;2024-02-15T01:43:51;101334.44;;;12.49;100.00
8140;BME280;4111;50.972;7.072;2024-02-15T01:46:19;101334.91;;;12.46;100.00
8140;BME280;4111;50.972;7.072;2024-02-15T01:48:47;101332.13;;;12.41;100.00
8140;BME280;4111;50.972;7.072;2024-02-15T01:51:15;101329.63;;;12.39;100.00
8140;BME280;4111;50.972;7.072;2024-02-15T01:53:43;101319.09;;;12.43;100.00
8140;BME280;4111;50.972;7.072;2024-02-15T01:56:12;101336.25;;;12.43;100.00
8140;BME280;4111;50.972;7.072;2024-02-15T01:58:41;101330.31;;;12.46;100.00
8140;BME280;4111;50.972;7.072;2024-02-15T02:01:09;101323.78;;;12.47;100.00
8140;BME280;4111;50.972;7.072;2024-02-15T02:03:36;101323.44;;;12.44;100.00
8140;BME280;4111;50.972;7.072;2024-02-15T02:06:03;101326.69;;;12.41;100.00
8140;BME280;4111;50.972;7.072;2024-02-15T02:08:30;101319.91;;;12.43;100.00
8140;BME280;4111;50.972;7.072;2024-02-15T02:10:56;101309.00;;;12.43;100.00
8140;BME280;4111;50.972;7.072;2024-02-15T02:13:23;101314.47;;;12.43;100.00
8140;BME280;4111;50.972;7.072;2024-02-15T02:15:50;101305.69;;;12.41;100.00
8140;BME280;4111;50.972;7.072;2024-02-15T02:18:17;101307.94;;;12.44;100.00
8140;BME280;4111;50.972;7.072;2024-02-15T02:20:44;101305.56;;;12.48;100.00
8140;BME280;4111;50.972;7.072;2024-02-15T02:23:16;101307.53;;;12.53;100.00
8140;BME280;4111;50.972;7.072;2024-02-15T02:25:46;101301.53;;;12.50;100.00
8140;BME280;4111;50.972;7.072;2024-02-15T02:28:15;101310.03;;;12.54;100.00
8140;BME280;4111;50.972;7.072;2024-02-15T02:30:44;101303.75;;;12.54;100.00
8140;BME280;4111;50.972;7.072;2024-02-15T02:33:12;101303.75;;;12.54;100.00
8140;BME280;4111;50.972;7.072;2024-02-15T02:35:46;101293.34;;;12.50;100.00
8140;BME280;4111;50.972;7.072;2024-02-15T02:38:14;101294.16;;;12.51;100.00
8140;BME280;4111;50.972;7.072;2024-02-15T02:40:41;101293.94;;;12.53;100.00
8140;BME280;4111;50.972;7.072;2024-02-15T02:43:08;101298.28;;;12.54;100.00
8140;BME280;4111;50.972;7.072;2024-02-15T02:45:34;101292.25;;;12.52;100.00
8140;BME280;4111;50.972;7.072;2024-02-15T02:48:01;101296.31;;;12.49;100.00
8140;BME280;4111;50.972;7.072;2024-02-15T02:50:28;101288.88;;;12.44;100.00
8140;BME280;4111;50.972;7.072;2024-02-15T02:52:54;101288.38;;;12.47;100.00
8140;BME280;4111;50.972;7.072;2024-02-15T02:55:22;101284.50;;;12.43;100.00
8140;BME280;4111;50.972;7.072;2024-02-15T02:57:48;101278.22;;;12.43;100.00
8140;BME280;4111;50.972;7.072;2024-02-15T03:00:16;101275.97;;;12.40;100.00
8140;BME280;4111;50.972;7.072;2024-02-15T03:02:43;101274.19;;;12.45;100.00
8140;BME280;4111;50.972;7.072;2024-02-15T03:05:11;101270.88;;;12.43;100.00
8140;BME280;4111;50.972;7.072;2024-02-15T03:07:39;101272.53;;;12.44;100.00
8140;BME280;4111;50.972;7.072;2024-02-15T03:10:07;101275.28;;;12.44;100.00
8140;BME280;4111;50.972;7.072;2024-02-15T03:12:35;101275.50;;;12.43;100.00
8140;BME280;4111;50.972;7.072;2024-02-15T03:15:03;101271.38;;;12.40;100.00
8140;BME280;4111;50.972;7.072;2024-02-15T03:17:30;101269.25;;;12.42;100.00
8140;BME280;4111;50.972;7.072;2024-02-15T03:20:00;101268.56;;;12.35;100.00
8140;BME280;4111;50.972;7.072;2024-02-15T03:22:28;101268.22;;;12.32;100.00
8140;BME280;4111;50.972;7.072;2024-02-15T03:24:56;101258.16;;;12.32;100.00
8140;BME280;4111;50.972;7.072;2024-02-15T03:27:22;101261.28;;;12.24;100.00
8140;BME280;4111;50.972;7.072;2024-02-15T03:29:49;101262.72;;;12.26;100.00
8140;BME280;4111;50.972;7.072;2024-02-15T03:32:17;101255.84;;;12.24;100.00
8140;BME280;4111;50.972;7.072;2024-02-15T03:34:44;101260.81;;;12.27;100.00
8140;BME280;4111;50.972;7.072;2024-02-15T03:37:11;101257.97;;;12.22;100.00
8140;BME280;4111;50.972;7.072;2024-02-15T03:39:38;101252.06;;;12.25;100.00
8140;BME280;4111;50.972;7.072;2024-02-15T03:42:04;101258.81;;;12.22;100.00
8140;BME280;4111;50.972;7.072;2024-02-15T03:44:32;101253.22;;;12.29;100.00
8140;BME280;4111;50.972;7.072;2024-02-15T03:46:59;101254.38;;;12.33;100.00
8140;BME280;4111;50.972;7.072;2024-02-15T03:49:26;101256.00;;;12.34;100.00
8140;BME280;4111;50.972;7.072;2024-02-15T03:51:53;101258.16;;;12.32;100.00
8140;BME280;4111;50.972;7.072;2024-02-15T03:54:21;101264.09;;;12.29;100.00
8140;BME280;4111;50.972;7.072;2024-02-15T03:56:50;101261.13;;;12.30;100.00
8140;BME280;4111;50.972;7.072;2024-02-15T03:59:21;101259.47;;;12.29;100.00
8140;BME280;4111;50.972;7.072;2024-02-15T04:01:53;101257.25;;;12.26;100.00
8140;BME280;4111;50.972;7.072;2024-02-15T04:04:20;101255.84;;;12.24;100.00
8140;BME280;4111;50.972;7.072;2024-02-15T04:06:50;101257.00;;;12.28;100.00
8140;BME280;4111;50.972;7.072;2024-02-15T04:09:18;101259.81;;;12.33;100.00
8140;BME280;4111;50.972;7.072;2024-02-15T04:11:44;101253.63;;;12.38;100.00
8140;BME280;4111;50.972;7.072;2024-02-15T04:14:19;101244.41;;;12.39;100.00
8140;BME280;4111;50.972;7.072;2024-02-15T04:16:46;101247.94;;;12.39;100.00
8140;BME280;4111;50.972;7.072;2024-02-15T04:19:12;101256.44;;;12.43;100.00
8140;BME280;4111;50.972;7.072;2024-02-15T04:21:39;101252.91;;;12.42;100.00
8140;BME280;4111;50.972;7.072;2024-02-15T04:24:06;101249.44;;;12.47;100.00
8140;BME280;4111;50.972;7.072;2024-02-15T04:26:33;101253.88;;;12.53;100.00
8140;BME280;4111;50.972;7.072;2024-02-15T04:28:59;101252.63;;;12.44;100.00
8140;BME280;4111;50.972;7.072;2024-02-15T04:31:26;101250.50;;;12.46;100.00
8140;BME280;4111;50.972;7.072;2024-02-15T04:33:53;101251.25;;;12.41;100.00
8140;BME280;4111;50.972;7.072;2024-02-15T04:36:21;101242.50;;;12.39;100.00
8140;BME280;4111;50.972;7.072;2024-02-15T04:38:52;101253.91;;;12.36;100.00
8140;BME280;4111;50.972;7.072;2024-02-15T04:41:19;101245.44;;;12.38;100.00
8140;BME280;4111;50.972;7.072;2024-02-15T04:43:46;101246.31;;;12.38;100.00
8140;BME280;4111;50.972;7.072;2024-02-15T04:46:13;101245.44;;;12.38;100.00
8140;BME280;4111;50.972;7.072;2024-02-15T04:48:41;101246.03;;;12.40;100.00
8140;BME280;4111;50.972;7.072;2024-02-15T04:51:09;101245.22;;;12.39;100.00
8140;BME280;4111;50.972;7.072;2024-02-15T04:53:37;101248.63;;;12.46;100.00
8140;BME280;4111;50.972;7.072;2024-02-15T04:56:05;101250.81;;;12.49;100.00
8140;BME280;4111;50.972;7.072;2024-02-15T04:58:37;101242.75;;;12.55;100.00
8140;BME280;4111;50.972;7.072;2024-02-15T05:01:04;101245.72;;;12.53;100.00
8140;BME280;4111;50.972;7.072;2024-02-15T05:03:32;101248.25;;;12.60;100.00
8140;BME280;4111;50.972;7.072;2024-02-15T05:06:01;101249.94;;;12.61;100.00
8140;BME280;4111;50.972;7.072;2024-02-15T05:08:30;101238.34;;;12.54;100.00
8140;BME280;4111;50.972;7.072;2024-02-15T05:10:58;101239.78;;;12.56;100.00
8140;BME280;4111;50.972;7.072;2024-02-15T05:13:24;101233.50;;;12.56;100.00
8140;BME280;4111;50.972;7.072;2024-02-15T05:15:51;101235.34;;;12.50;100.00
8140;BME280;4111;50.972;7.072;2024-02-15T05:18:18;101227.63;;;12.47;100.00
8140;BME280;4111;50.972;7.072;2024-02-15T05:20:45;101229.38;;;12.53;100.00
8140;BME280;4111;50.972;7.072;2024-02-15T05:23:11;101232.44;;;12.57;100.00
8140;BME280;4111;50.972;7.072;2024-02-15T05:25:38;101229.72;;;12.57;100.00
8140;BME280;4111;50.972;7.072;2024-02-15T05:28:05;101231.63;;;12.56;100.00
8140;BME280;4111;50.972;7.072;2024-02-15T05:30:35;101230.88;;;12.61;100.00
8140;BME280;4111;50.972;7.072;2024-02-15T05:33:04;101234.97;;;12.63;100.00
8140;BME280;4111;50.972;7.072;2024-02-15T05:35:30;101231.44;;;12.63;100.00
8140;BME280;4111;50.972;7.072;2024-02-15T05:37:57;101226.47;;;12.60;100.00
8140;BME280;4111;50.972;7.072;2024-02-15T05:40:24;101218.28;;;12.60;100.00
8140;BME280;4111;50.972;7.072;2024-02-15T05:42:55;101218.97;;;12.67;100.00
8140;BME280;4111;50.972;7.072;2024-02-15T05:47:52;101230.94;;;12.66;100.00
8140;BME280;4111;50.972;7.072;2024-02-15T05:50:19;101225.00;;;12.69;100.00
8140;BME280;4111;50.972;7.072;2024-02-15T05:52:47;101233.16;;;12.69;100.00
8140;BME280;4111;50.972;7.072;2024-02-15T05:55:14;101225.50;;;12.66;100.00
8140;BME280;4111;50.972;7.072;2024-02-15T05:57:44;101221.13;;;12.65;100.00
8140;BME280;4111;50.972;7.072;2024-02-15T06:00:11;101229.28;;;12.65;100.00
8140;BME280;4111;50.972;7.072;2024-02-15T06:02:48;101222.03;;;12.70;100.00
8140;BME280;4111;50.972;7.072;2024-02-15T06:05:16;101220.06;;;12.66;100.00
8140;BME280;4111;50.972;7.072;2024-02-15T06:07:44;101222.22;;;12.64;100.00
8140;BME280;4111;50.972;7.072;2024-02-15T06:10:13;101226.31;;;12.66;100.00
8140;BME280;4111;50.972;7.072;2024-02-15T06:12:41;101230.94;;;12.66;100.00
8140;BME280;4111;50.972;7.072;2024-02-15T06:15:09;101226.00;;;12.63;100.00
8140;BME280;4111;50.972;7.072;2024-02-15T06:17:43;101224.84;;;12.59;100.00
8140;BME280;4111;50.972;7.072;2024-02-15T06:20:14;101213.47;;;12.62;100.00
8140;BME280;4111;50.972;7.072;2024-02-15T06:22:40;101212.75;;;12.88;100.00
8140;BME280;4111;50.972;7.072;2024-02-15T06:25:08;101209.47;;;13.08;100.00
8140;BME280;4111;50.972;7.072;2024-02-15T06:27:34;101214.97;;;13.31;100.00
8140;BME280;4111;50.972;7.072;2024-02-15T06:30:03;101216.28;;;13.28;100.00
8140;BME280;4111;50.972;7.072;2024-02-15T06:32:48;101213.81;;;13.26;100.00
8140;BME280;4111;50.972;7.072;2024-02-15T06:35:34;101217.31;;;13.22;100.00
8140;BME280;4111;50.972;7.072;2024-02-15T06:38:19;101216.31;;;13.11;100.00
8140;BME280;4111;50.972;7.072;2024-02-15T06:41:04;101218.47;;;13.09;100.00
8140;BME280;4111;50.972;7.072;2024-02-15T06:43:30;101216.06;;;13.13;100.00
8140;BME280;4111;50.972;7.072;2024-02-15T06:45:58;101213.03;;;13.09;100.00
8140;BME280;4111;50.972;7.072;2024-02-15T06:48:25;101219.56;;;13.08;100.00
8140;BME280;4111;50.972;7.072;2024-02-15T06:50:52;101216.06;;;13.13;100.00
8140;BME280;4111;50.972;7.072;2024-02-15T06:53:19;101216.31;;;13.11;100.00
8140;BME280;4111;50.972;7.072;2024-02-15T06:55:46;101217.34;;;13.05;100.00
8140;BME280;4111;50.972;7.072;2024-02-15T06:58:16;101225.09;;;13.13;100.00
8140;BME280;4111;50.972;7.072;2024-02-15T07:00:43;101225.59;;;13.10;100.00
8140;BME280;4111;50.972;7.072;2024-02-15T07:03:10;101218.34;;;12.99;100.00
8140;BME280;4111;50.972;7.072;2024-02-15T07:05:39;101227.28;;;12.94;100.00
8140;BME280;4111;50.972;7.072;2024-02-15T07:08:08;101234.56;;;12.88;100.00
8140;BME280;4111;50.972;7.072;2024-02-15T07:10:39;101229.78;;;12.79;100.00
8140;BME280;4111;50.972;7.072;2024-02-15T07:13:06;101237.13;;;12.78;100.00
8140;BME280;4111;50.972;7.072;2024-02-15T07:15:33;101237.13;;;12.78;100.00
8140;BME280;4111;50.972;7.072;2024-02-15T07:18:07;101237.72;;;12.80;100.00
8140;BME280;4111;50.972;7.072;2024-02-15T07:20:33;101237.19;;;12.83;100.00
8140;BME280;4111;50.972;7.072;2024-02-15T07:23:00;101238.03;;;12.84;100.00
8140;BME280;4111;50.972;7.072;2024-02-15T07:25:27;101231.50;;;12.85;100.00
8140;BME280;4111;50.972;7.072;2024-02-15T07:27:53;101235.22;;;12.79;100.00
8140;BME280;4111;50.972;7.072;2024-02-15T07:30:20;101238.84;;;12.84;100.00
8140;BME280;4111;50.972;7.072;2024-02-15T07:32:51;101242.34;;;12.80;100.00
8140;BME280;4111;50.972;7.072;2024-02-15T07:35:18;101241.59;;;12.84;100.00
8140;BME280;4111;50.972;7.072;2024-02-15T07:37:54;101239.44;;;12.86;100.00
8140;BME280;4111;50.972;7.072;2024-02-15T07:40:25;101232.59;;;12.84;100.00
8140;BME280;4111;50.972;7.072;2024-02-15T07:42:57;101233.22;;;12.91;100.00
8140;BME280;4111;50.972;7.072;2024-02-15T07:45:26;101240.00;;;12.88;100.00
8140;BME280;4111;50.972;7.072;2024-02-15T07:47:54;101248.19;;;12.88;100.00
8140;BME280;4111;50.972;7.072;2024-02-15T07:50:20;101247.13;;;12.89;100.00
8140;BME280;4111;50.972;7.072;2024-02-15T07:52:49;101246.28;;;12.89;100.00
8140;BME280;4111;50.972;7.072;2024-02-15T07:55:16;101250.91;;;12.88;100.00
8140;BME280;4111;50.972;7.072;2024-02-15T07:57:42;101250.25;;;12.81;100.00
8140;BME280;4111;50.972;7.072;2024-02-15T08:00:09;101245.06;;;12.80;100.00
8140;BME280;4111;50.972;7.072;2024-02-15T08:02:38;101250.19;;;12.76;100.00
8140;BME280;4111;50.972;7.072;2024-02-15T08:05:07;101239.84;;;12.78;100.00
8140;BME280;4111;50.972;7.072;2024-02-15T08:07:38;101239.53;;;12.75;100.00
8140;BME280;4111;50.972;7.072;2024-02-15T08:10:07;101236.56;;;12.76;100.00
8140;BME280;4111;50.972;7.072;2024-02-15T08:12:46;101243.16;;;12.63;100.00
8140;BME280;4111;50.972;7.072;2024-02-15T08:15:12;101244.06;;;12.69;100.00
8140;BME280;4111;50.972;7.072;2024-02-15T08:17:43;101246.44;;;12.65;100.00
8140;BME280;4111;50.972;7.072;2024-02-15T08:20:13;101246.16;;;12.62;100.00
8140;BME280;4111;50.972;7.072;2024-02-15T08:22:49;101248.88;;;12.62;100.00
8140;BME280;4111;50.972;7.072;2024-02-15T08:25:15;101237.63;;;12.58;100.00
8140;BME280;4111;50.972;7.072;2024-02-15T08:27:47;101231.63;;;12.56;100.00
8140;BME280;4111;50.972;7.072;2024-02-15T08:30:16;101222.53;;;12.50;100.00
8140;BME280;4111;50.972;7.072;2024-02-15T08:32:45;101224.69;;;12.48;100.00
8140;BME280;4111;50.972;7.072;2024-02-15T08:35:12;101218.47;;;12.53;100.00
8140;BME280;4111;50.972;7.072;2024-02-15T08:37:40;101206.34;;;12.44;100.00
8140;BME280;4111;50.972;7.072;2024-02-15T08:40:09;101209.97;;;12.49;100.00
8140;BME280;4111;50.972;7.072;2024-02-15T08:42:42;101209.06;;;12.44;100.00
8140;BME280;4111;50.972;7.072;2024-02-15T08:45:10;101198.44;;;12.42;100.00
8140;BME280;4111;50.972;7.072;2024-02-15T08:47:38;101205.84;;;12.47;100.00
8140;BME280;4111;50.972;7.072;2024-02-15T08:50:06;101202.88;;;12.48;100.00
8140;BME280;4111;50.972;7.072;2024-02-15T08:52:36;101202.88;;;12.48;100.00
8140;BME280;4111;50.972;7.072;2024-02-15T08:55:06;101198.25;;;12.49;100.00
8140;BME280;4111;50.972;7.072;2024-02-15T08:57:33;101191.19;;;12.48;100.00
8140;BME280;4111;50.972;7.072;2024-02-15T09:00:04;101200.75;;;12.50;100.00
8140;BME280;4111;50.972;7.072;2024-02-15T09:02:46;101203.22;;;12.52;100.00
8140;BME280;4111;50.972;7.072;2024-02-15T09:05:13;101200.06;;;12.60;100.00
8140;BME280;4111;50.972;7.072;2024-02-15T09:07:42;101200.41;;;12.64;100.00
8140;BME280;4111;50.972;7.072;2024-02-15T09:10:10;101192.81;;;12.66;100.00
8140;BME280;4111;50.972;7.072;2024-02-15T09:12:37;101190.66;;;12.68;100.00
8140;BME280;4111;50.972;7.072;2024-02-15T09:15:08;101186.94;;;12.74;100.00
8140;BME280;4111;50.972;7.072;2024-02-15T09:17:35;101186.69;;;12.76;100.00
8140;BME280;4111;50.972;7.072;2024-02-15T09:20:07;101190.63;;;12.85;100.00
8140;BME280;4111;50.972;7.072;2024-02-15T09:22:35;101192.63;;;12.89;100.00
8140;BME280;4111;50.972;7.072;2024-02-15T09:25:02;101190.75;;;12.95;100.00
8140;BME280;4111;50.972;7.072;2024-02-15T09:27:29;101186.19;;;13.01;100.00
8140;BME280;4111;50.972;7.072;2024-02-15T09:29:56;101187.44;;;13.10;100.00
8140;BME280;4111;50.972;7.072;2024-02-15T09:32:22;101185.47;;;13.05;100.00
8140;BME280;4111;50.972;7.072;2024-02-15T09:34:49;101190.72;;;13.12;100.00
8140;BME280;4111;50.972;7.072;2024-02-15T09:37:15;101193.00;;;13.20;100.00
8140;BME280;4111;50.972;7.072;2024-02-15T09:39:42;101191.66;;;13.23;100.00
8140;BME280;4111;50.972;7.072;2024-02-15T09:42:08;101179.31;;;13.15;100.00
8140;BME280;4111;50.972;7.072;2024-02-15T09:44:35;101191.53;;;13.13;100.00
8140;BME280;4111;50.972;7.072;2024-02-15T09:47:03;101194.34;;;13.18;100.00
8140;BME280;4111;50.972;7.072;2024-02-15T09:49:39;101190.69;;;13.29;100.00
8140;BME280;4111;50.972;7.072;2024-02-15T09:52:07;101188.69;;;13.24;100.00
8140;BME280;4111;50.972;7.072;2024-02-15T09:54:44;101190.59;;;13.24;100.00
8140;BME280;4111;50.972;7.072;2024-02-15T09:57:11;101191.56;;;13.35;100.00
8140;BME280;4111;50.972;7.072;2024-02-15T09:59:38;101190.31;;;13.42;100.00
8140;BME280;4111;50.972;7.072;2024-02-15T10:02:06;101187.34;;;13.44;100.00
8140;BME280;4111;50.972;7.072;2024-02-15T10:04:39;101190.88;;;13.44;100.00
8140;BME280;4111;50.972;7.072;2024-02-15T10:07:05;101187.44;;;13.54;100.00
8140;BME280;4111;50.972;7.072;2024-02-15T10:09:36;101187.75;;;13.58;100.00
8140;BME280;4111;50.972;7.072;2024-02-15T10:12:03;101196.03;;;13.63;100.00
8140;BME280;4111;50.972;7.072;2024-02-15T10:14:34;101191.47;;;13.74;100.00
8140;BME280;4111;50.972;7.072;2024-02-15T10:17:08;101191.47;;;13.74;100.00
8140;BME280;4111;50.972;7.072;2024-02-15T10:19:38;101189.72;;;13.62;100.00
8140;BME280;4111;50.972;7.072;2024-02-15T10:22:06;101192.50;;;13.67;100.00
8140;BME280;4111;50.972;7.072;2024-02-15T10:24:34;101186.03;;;13.74;100.00
8140;BME280;4111;50.972;7.072;2024-02-15T10:27:02;101181.38;;;13.74;100.00
8140;BME280;4111;50.972;7.072;2024-02-15T10:29:30;101191.78;;;13.77;100.00
8140;BME280;4111;50.972;7.072;2024-02-15T10:31:58;101183.34;;;13.79;100.00
8140;BME280;4111;50.972;7.072;2024-02-15T10:34:28;101186.66;;;13.81;100.00
8140;BME280;4111;50.972;7.072;2024-02-15T10:36:55;101177.91;;;13.79;100.00
8140;BME280;4111;50.972;7.072;2024-02-15T10:39:36;101182.31;;;13.85;100.00
8140;BME280;4111;50.972;7.072;2024-02-15T10:42:03;101176.34;;;13.88;100.00
8140;BME280;4111;50.972;7.072;2024-02-15T10:44:32;101174.94;;;13.85;100.00
8140;BME280;4111;50.972;7.072;2024-02-15T10:47:00;101172.84;;;13.93;100.00
8140;BME280;4111;50.972;7.072;2024-02-15T10:49:36;101168.53;;;13.97;100.00
8140;BME280;4111;50.972;7.072;2024-02-15T10:52:04;101168.84;;;14.00;100.00
8140;BME280;4111;50.972;7.072;2024-02-15T10:54:47;101176.00;;;14.12;100.00
8140;BME280;4111;50.972;7.072;2024-02-15T10:57:21;101166.84;;;14.23;100.00
8140;BME280;4111;50.972;7.072;2024-02-15T10:59:56;101156.25;;;14.32;100.00
8140;BME280;4111;50.972;7.072;2024-02-15T11:03:01;101148.88;;;14.32;100.00
8140;BME280;4111;50.972;7.072;2024-02-15T11:05:33;101156.03;;;14.38;100.00
8140;BME280;4111;50.972;7.072;2024-02-15T11:08:05;101153.81;;;14.35;100.00
8140;BME280;4111;50.972;7.072;2024-02-15T11:10:33;101151.19;;;14.51;100.00
8140;BME280;4111;50.972;7.072;2024-02-15T11:13:01;101146.53;;;14.51;100.00
8140;BME280;4111;50.972;7.072;2024-02-15T11:15:46;101149.09;;;14.58;100.00
8140;BME280;4111;50.972;7.072;2024-02-15T11:21:54;101134.97;;;14.76;100.00
8140;BME280;4111;50.972;7.072;2024-02-15T11:24:27;101134.47;;;14.79;100.00
8140;BME280;4111;50.972;7.072;2024-02-15T11:29:53;101128.25;;;14.94;100.00
8140;BME280;4111;50.972;7.072;2024-02-15T11:35:16;101125.84;;;15.03;100.00
8140;BME280;4111;50.972;7.072;2024-02-15T11:40:59;101117.13;;;15.11;100.00
8140;BME280;4111;50.972;7.072;2024-02-15T11:43:45;101105.66;;;15.19;100.00
8140;BME280;4111;50.972;7.072;2024-02-15T11:46:13;101110.31;;;15.24;100.00
8140;BME280;4111;50.972;7.072;2024-02-15T11:48:40;101105.41;;;15.31;100.00
8140;BME280;4111;50.972;7.072;2024-02-15T11:51:07;101105.13;;;15.38;100.00
8140;BME280;4111;50.972;7.072;2024-02-15T11:53:39;101104.88;;;15.39;100.00
8140;BME280;4111;50.972;7.072;2024-02-15T11:56:06;101108.97;;;15.42;100.00
8140;BME280;4111;50.972;7.072;2024-02-15T11:58:36;101094.78;;;15.45;100.00
8140;BME280;4111;50.972;7.072;2024-02-15T12:01:18;101099.44;;;15.55;100.00
8140;BME280;4111;50.972;7.072;2024-02-15T12:04:04;101096.16;;;15.58;100.00
8140;BME280;4111;50.972;7.072;2024-02-15T12:06:49;101088.81;;;15.74;100.00
8140;BME280;4111;50.972;7.072;2024-02-15T12:09:41;101093.47;;;15.78;100.00
8140;BME280;4111;50.972;7.072;2024-02-15T12:12:28;101097.28;;;15.72;99.58
8140;BME280;4111;50.972;7.072;2024-02-15T12:15:14;101098.16;;;15.78;99.57
8140;BME280;4111;50.972;7.072;2024-02-15T12:18:15;101088.28;;;15.82;98.68
8140;BME280;4111;50.972;7.072;2024-02-15T12:21:24;101081.72;;;15.88;97.70
8140;BME280;4111;50.972;7.072;2024-02-15T12:23:53;101086.63;;;15.96;97.96
8140;BME280;4111;50.972;7.072;2024-02-15T12:26:20;101080.06;;;15.97;97.00
8140;BME280;4111;50.972;7.072;2024-02-15T12:28:51;101075.13;;;15.89;95.61
8140;BME280;4111;50.972;7.072;2024-02-15T12:31:21;101075.66;;;15.91;95.25
8140;BME280;4111;50.972;7.072;2024-02-15T12:34:02;101068.28;;;15.97;95.27
8140;BME280;4111;50.972;7.072;2024-02-15T12:36:34;101065.53;;;15.97;95.08
8140;BME280;4111;50.972;7.072;2024-02-15T12:39:04;101062.28;;;16.00;94.69
8140;BME280;4111;50.972;7.072;2024-02-15T12:41:41;101055.97;;;16.10;94.78
8140;BME280;4111;50.972;7.072;2024-02-15T12:44:07;101052.38;;;16.19;94.28
8140;BME280;4111;50.972;7.072;2024-02-15T12:46:38;101041.13;;;16.31;93.94
8140;BME280;4111;50.972;7.072;2024-02-15T12:49:10;101043.03;;;16.36;93.29
8140;BME280;4111;50.972;7.072;2024-02-15T12:51:40;101046.00;;;16.44;93.61
8140;BME280;4111;50.972;7.072;2024-02-15T12:54:19;101035.63;;;16.36;91.86
8140;BME280;4111;50.972;7.072;2024-02-15T12:56:47;101031.25;;;16.35;91.21
8140;BME280;4111;50.972;7.072;2024-02-15T12:59:20;101039.44;;;16.40;91.10
8140;BME280;4111;50.972;7.072;2024-02-15T13:01:47;101024.13;;;16.34;90.61
8140;BME280;4111;50.972;7.072;2024-02-15T13:04:24;101020.25;;;16.40;90.07
8140;BME280;4111;50.972;7.072;2024-02-15T13:06:52;101022.16;;;16.50;90.18
8140;BME280;4111;50.972;7.072;2024-02-15T13:09:18;101018.00;;;16.58;89.56
8140;BME280;4111;50.972;7.072;2024-02-15T13:11:45;101016.88;;;16.64;89.26
8140;BME280;4111;50.972;7.072;2024-02-15T13:14:13;101018.00;;;16.63;88.75
8140;BME280;4111;50.972;7.072;2024-02-15T13:16:39;101013.06;;;16.60;88.38
8140;BME280;4111;50.972;7.072;2024-02-15T13:19:06;101009.78;;;16.63;88.54
8140;BME280;4111;50.972;7.072;2024-02-15T13:21:33;100999.94;;;16.57;87.95
8140;BME280;4111;50.972;7.072;2024-02-15T13:24:00;100990.59;;;16.58;87.65
8140;BME280;4111;50.972;7.072;2024-02-15T13:26:31;100992.25;;;16.59;86.89
8140;BME280;4111;50.972;7.072;2024-02-15T13:29:00;100991.19;;;16.55;86.27